sensor_id;sensor_type;location;lat;lon;timestamp;temperature;humidity
20182;DHT22;10250;50.756;6.172;2023-01-29T00:00:35;2.30;1.00
20182;DHT22;10250;50.756;6.172;2023-01-29T00:02:36;2.40;1.00
20182;DHT22;10250;50.756;6.172;2023-01-29T00:04:37;2.30;1.00
20182;DHT22;10250;50.756;6.172;2023-01-29T00:06:37;2.30;1.00
20182;DHT22;10250;50.756;6.172;2023-01-29T00:08:39;2.30;1.00
20182;DHT22;10250;50.756;6.172;2023-01-29T00:10:39;2.30;1.00
20182;DHT22;10250;50.756;6.172;2023-01-29T00:12:40;2.20;1.00
20182;DHT22;10250;50.756;6.172;2023-01-29T00:14:40;2.20;1.00
20182;DHT22;10250;50.756;6.172;2023-01-29T00:16:41;2.20;1.00
20182;DHT22;10250;50.756;6.172;2023-01-29T00:18:42;2.20;1.00
20182;DHT22;10250;50.756;6.172;2023-01-29T00:20:42;2.20;1.00
20182;DHT22;10250;50.756;6.172;2023-01-29T00:22:43;2.20;1.00
20182;DHT22;10250;50.756;6.172;2023-01-29T00:24:44;2.20;1.00
20182;DHT22;10250;50.756;6.172;2023-01-29T00:26:44;2.20;1.00
20182;DHT22;10250;50.756;6.172;2023-01-29T00:28:45;2.20;1.00
20182;DHT22;10250;50.756;6.172;2023-01-29T00:30:45;2.30;1.00
20182;DHT22;10250;50.756;6.172;2023-01-29T00:32:46;2.30;1.00
20182;DHT22;10250;50.756;6.172;2023-01-29T00:34:46;2.20;1.00
20182;DHT22;10250;50.756;6.172;2023-01-29T00:36:47;2.20;1.00
20182;DHT22;10250;50.756;6.172;2023-01-29T00:38:56;2.20;1.00
20182;DHT22;10250;50.756;6.172;2023-01-29T00:41:14;2.20;1.00
20182;DHT22;10250;50.756;6.172;2023-01-29T00:43:33;2.20;1.00
20182;DHT22;10250;50.756;6.172;2023-01-29T00:45:52;2.30;1.00
20182;DHT22;10250;50.756;6.172;2023-01-29T00:47:53;2.40;1.00
20182;DHT22;10250;50.756;6.172;2023-01-29T00:49:54;2.30;1.00
20182;DHT22;10250;50.756;6.172;2023-01-29T00:51:54;2.40;1.00
20182;DHT22;10250;50.756;6.172;2023-01-29T00:54:14;2.30;1.00
20182;DHT22;10250;50.756;6.172;2023-01-29T00:56:14;2.20;1.00
20182;DHT22;10250;50.756;6.172;2023-01-29T00:58:15;2.20;1.00
20182;DHT22;10250;50.756;6.172;2023-01-29T01:00:21;2.20;1.00
20182;DHT22;10250;50.756;6.172;2023-01-29T01:02:22;2.20;1.00
20182;DHT22;10250;50.756;6.172;2023-01-29T01:04:41;2.10;1.00
20182;DHT22;10250;50.756;6.172;2023-01-29T01:06:42;2.20;1.00
20182;DHT22;10250;50.756;6.172;2023-01-29T01:08:42;2.20;1.00
20182;DHT22;10250;50.756;6.172;2023-01-29T01:11:04;2.20;1.00
20182;DHT22;10250;50.756;6.172;2023-01-29T01:13:06;2.10;1.00
20182;DHT22;10250;50.756;6.172;2023-01-29T01:15:07;2.00;1.00
20182;DHT22;10250;50.756;6.172;2023-01-29T01:17:08;1.80;1.00
20182;DHT22;10250;50.756;6.172;2023-01-29T01:19:09;1.80;1.00
20182;DHT22;10250;50.756;6.172;2023-01-29T01:21:09;1.90;1.00
20182;DHT22;10250;50.756;6.172;2023-01-29T01:23:10;2.00;1.00
20182;DHT22;10250;50.756;6.172;2023-01-29T01:25:11;1.90;1.00
20182;DHT22;10250;50.756;6.172;2023-01-29T01:27:11;1.90;1.00
20182;DHT22;10250;50.756;6.172;2023-01-29T01:29:12;2.00;1.00
20182;DHT22;10250;50.756;6.172;2023-01-29T01:31:13;2.00;1.00
20182;DHT22;10250;50.756;6.172;2023-01-29T01:33:14;2.00;1.00
20182;DHT22;10250;50.756;6.172;2023-01-29T01:35:15;2.00;1.00
20182;DHT22;10250;50.756;6.172;2023-01-29T01:37:16;2.10;1.00
20182;DHT22;10250;50.756;6.172;2023-01-29T01:39:16;1.90;1.00
20182;DHT22;10250;50.756;6.172;2023-01-29T01:41:19;1.90;1.00
20182;DHT22;10250;50.756;6.172;2023-01-29T01:43:20;1.90;1.00
20182;DHT22;10250;50.756;6.172;2023-01-29T01:45:25;1.90;1.00
20182;DHT22;10250;50.756;6.172;2023-01-29T01:47:39;1.80;1.00
20182;DHT22;10250;50.756;6.172;2023-01-29T01:49:42;1.90;1.00
20182;DHT22;10250;50.756;6.172;2023-01-29T01:51:47;1.90;1.00
20182;DHT22;10250;50.756;6.172;2023-01-29T01:53:58;1.90;1.00
20182;DHT22;10250;50.756;6.172;2023-01-29T01:56:04;2.00;1.00
20182;DHT22;10250;50.756;6.172;2023-01-29T01:58:10;2.00;1.00
20182;DHT22;10250;50.756;6.172;2023-01-29T02:00:14;2.00;1.00
20182;DHT22;10250;50.756;6.172;2023-01-29T02:02:16;2.00;1.00
20182;DHT22;10250;50.756;6.172;2023-01-29T02:04:45;2.10;1.00
20182;DHT22;10250;50.756;6.172;2023-01-29T02:07:06;2.10;1.00
20182;DHT22;10250;50.756;6.172;2023-01-29T02:09:31;2.00;1.00
20182;DHT22;10250;50.756;6.172;2023-01-29T02:11:35;2.10;1.00
20182;DHT22;10250;50.756;6.172;2023-01-29T02:13:36;2.10;1.00
20182;DHT22;10250;50.756;6.172;2023-01-29T02:15:37;2.00;1.00
20182;DHT22;10250;50.756;6.172;2023-01-29T02:17:41;1.90;1.00
20182;DHT22;10250;50.756;6.172;2023-01-29T02:27:58;2.00;1.00
20182;DHT22;10250;50.756;6.172;2023-01-29T02:30:22;2.00;1.00
20182;DHT22;10250;50.756;6.172;2023-01-29T02:32:29;2.00;1.00
20182;DHT22;10250;50.756;6.172;2023-01-29T02:34:36;2.10;1.00
20182;DHT22;10250;50.756;6.172;2023-01-29T02:37:04;2.10;1.00
20182;DHT22;10250;50.756;6.172;2023-01-29T02:39:26;2.10;1.00
20182;DHT22;10250;50.756;6.172;2023-01-29T02:44:05;1.90;1.00
20182;DHT22;10250;50.756;6.172;2023-01-29T02:48:22;1.70;1.00
20182;DHT22;10250;50.756;6.172;2023-01-29T02:50:36;1.90;1.00
20182;DHT22;10250;50.756;6.172;2023-01-29T02:52:44;1.90;1.00
20182;DHT22;10250;50.756;6.172;2023-01-29T02:54:51;2.00;1.00
20182;DHT22;10250;50.756;6.172;2023-01-29T02:56:57;1.80;1.00
20182;DHT22;10250;50.756;6.172;2023-01-29T02:59:13;1.90;1.00
20182;DHT22;10250;50.756;6.172;2023-01-29T03:01:21;2.00;1.00
20182;DHT22;10250;50.756;6.172;2023-01-29T03:03:31;2.00;1.00
20182;DHT22;10250;50.756;6.172;2023-01-29T03:05:42;1.90;1.00
20182;DHT22;10250;50.756;6.172;2023-01-29T03:07:49;2.00;1.00
20182;DHT22;10250;50.756;6.172;2023-01-29T03:09:52;2.00;1.00
20182;DHT22;10250;50.756;6.172;2023-01-29T03:11:56;2.00;1.00
20182;DHT22;10250;50.756;6.172;2023-01-29T03:14:15;1.90;1.00
20182;DHT22;10250;50.756;6.172;2023-01-29T03:18:23;2.00;1.00
20182;DHT22;10250;50.756;6.172;2023-01-29T03:20:31;1.90;1.00
20182;DHT22;10250;50.756;6.172;2023-01-29T03:22:34;1.80;1.00
20182;DHT22;10250;50.756;6.172;2023-01-29T03:24:44;1.80;1.00
20182;DHT22;10250;50.756;6.172;2023-01-29T03:27:08;1.70;1.00
20182;DHT22;10250;50.756;6.172;2023-01-29T03:29:30;1.70;1.00
20182;DHT22;10250;50.756;6.172;2023-01-29T03:31:51;1.70;1.00
20182;DHT22;10250;50.756;6.172;2023-01-29T03:34:12;1.80;1.00
20182;DHT22;10250;50.756;6.172;2023-01-29T03:36:32;1.80;1.00
20182;DHT22;10250;50.756;6.172;2023-01-29T03:38:37;1.80;1.00
20182;DHT22;10250;50.756;6.172;2023-01-29T03:40:51;1.80;1.00
20182;DHT22;10250;50.756;6.172;2023-01-29T03:49:54;1.80;1.00
20182;DHT22;10250;50.756;6.172;2023-01-29T03:52:05;1.80;1.00
20182;DHT22;10250;50.756;6.172;2023-01-29T03:54:28;1.80;1.00
20182;DHT22;10250;50.756;6.172;2023-01-29T03:57:01;1.80;1.00
20182;DHT22;10250;50.756;6.172;2023-01-29T04:01:25;1.80;1.00
20182;DHT22;10250;50.756;6.172;2023-01-29T04:03:35;1.90;1.00
20182;DHT22;10250;50.756;6.172;2023-01-29T04:05:48;1.90;1.00
20182;DHT22;10250;50.756;6.172;2023-01-29T04:07:55;1.80;1.00
20182;DHT22;10250;50.756;6.172;2023-01-29T04:10:03;1.70;1.00
20182;DHT22;10250;50.756;6.172;2023-01-29T04:12:11;1.80;1.00
20182;DHT22;10250;50.756;6.172;2023-01-29T04:14:13;1.70;1.00
20182;DHT22;10250;50.756;6.172;2023-01-29T04:16:21;1.80;1.00
20182;DHT22;10250;50.756;6.172;2023-01-29T04:18:23;1.90;1.00
20182;DHT22;10250;50.756;6.172;2023-01-29T04:20:24;2.00;1.00
20182;DHT22;10250;50.756;6.172;2023-01-29T04:22:31;1.90;1.00
20182;DHT22;10250;50.756;6.172;2023-01-29T04:24:33;1.80;1.00
20182;DHT22;10250;50.756;6.172;2023-01-29T04:30:57;1.70;1.00
20182;DHT22;10250;50.756;6.172;2023-01-29T04:35:43;1.80;1.00
20182;DHT22;10250;50.756;6.172;2023-01-29T04:38:01;1.90;1.00
20182;DHT22;10250;50.756;6.172;2023-01-29T04:40:24;1.70;1.00
20182;DHT22;10250;50.756;6.172;2023-01-29T04:42:53;1.80;1.00
20182;DHT22;10250;50.756;6.172;2023-01-29T04:47:34;1.80;1.00
20182;DHT22;10250;50.756;6.172;2023-01-29T04:54:14;2.00;1.00
20182;DHT22;10250;50.756;6.172;2023-01-29T04:56:27;1.80;1.00
20182;DHT22;10250;50.756;6.172;2023-01-29T04:58:36;1.90;1.00
20182;DHT22;10250;50.756;6.172;2023-01-29T05:00:42;1.90;1.00
20182;DHT22;10250;50.756;6.172;2023-01-29T05:02:43;1.90;1.00
20182;DHT22;10250;50.756;6.172;2023-01-29T05:04:45;1.90;1.00
20182;DHT22;10250;50.756;6.172;2023-01-29T05:06:46;1.90;1.00
20182;DHT22;10250;50.756;6.172;2023-01-29T05:08:49;1.80;1.00
20182;DHT22;10250;50.756;6.172;2023-01-29T05:10:51;1.80;1.00
20182;DHT22;10250;50.756;6.172;2023-01-29T05:12:59;1.90;1.00
20182;DHT22;10250;50.756;6.172;2023-01-29T05:15:02;1.80;1.00
20182;DHT22;10250;50.756;6.172;2023-01-29T05:17:13;1.80;1.00
20182;DHT22;10250;50.756;6.172;2023-01-29T05:19:15;1.80;1.00
20182;DHT22;10250;50.756;6.172;2023-01-29T05:21:17;1.80;1.00
20182;DHT22;10250;50.756;6.172;2023-01-29T05:23:20;1.80;1.00
20182;DHT22;10250;50.756;6.172;2023-01-29T05:25:22;1.90;1.00
20182;DHT22;10250;50.756;6.172;2023-01-29T05:27:30;1.70;1.00
20182;DHT22;10250;50.756;6.172;2023-01-29T05:29:49;1.80;1.00
20182;DHT22;10250;50.756;6.172;2023-01-29T05:31:50;1.80;1.00
20182;DHT22;10250;50.756;6.172;2023-01-29T05:33:50;1.70;1.00
20182;DHT22;10250;50.756;6.172;2023-01-29T05:35:51;1.80;1.00
20182;DHT22;10250;50.756;6.172;2023-01-29T05:37:52;1.90;1.00
20182;DHT22;10250;50.756;6.172;2023-01-29T05:39:55;1.90;1.00
20182;DHT22;10250;50.756;6.172;2023-01-29T05:41:56;1.90;1.00
20182;DHT22;10250;50.756;6.172;2023-01-29T05:43:56;1.90;1.00
20182;DHT22;10250;50.756;6.172;2023-01-29T05:45:58;1.80;1.00
20182;DHT22;10250;50.756;6.172;2023-01-29T05:47:59;1.80;1.00
20182;DHT22;10250;50.756;6.172;2023-01-29T05:50:00;2.00;1.00
20182;DHT22;10250;50.756;6.172;2023-01-29T05:52:00;1.90;1.00
20182;DHT22;10250;50.756;6.172;2023-01-29T05:54:01;1.70;1.00
20182;DHT22;10250;50.756;6.172;2023-01-29T05:56:03;1.70;1.00
20182;DHT22;10250;50.756;6.172;2023-01-29T05:58:04;1.80;1.00
20182;DHT22;10250;50.756;6.172;2023-01-29T06:00:05;1.80;1.00
20182;DHT22;10250;50.756;6.172;2023-01-29T06:02:06;1.70;1.00
20182;DHT22;10250;50.756;6.172;2023-01-29T06:04:07;1.80;1.00
20182;DHT22;10250;50.756;6.172;2023-01-29T06:06:08;1.90;1.00
20182;DHT22;10250;50.756;6.172;2023-01-29T06:08:08;2.10;1.00
20182;DHT22;10250;50.756;6.172;2023-01-29T06:10:18;2.10;1.00
20182;DHT22;10250;50.756;6.172;2023-01-29T06:12:19;2.00;1.00
20182;DHT22;10250;50.756;6.172;2023-01-29T06:14:20;2.00;1.00
20182;DHT22;10250;50.756;6.172;2023-01-29T06:16:20;1.90;1.00
20182;DHT22;10250;50.756;6.172;2023-01-29T06:18:21;1.90;1.00
20182;DHT22;10250;50.756;6.172;2023-01-29T06:20:22;2.00;1.00
20182;DHT22;10250;50.756;6.172;2023-01-29T06:22:22;1.80;1.00
20182;DHT22;10250;50.756;6.172;2023-01-29T06:24:23;2.00;1.00
20182;DHT22;10250;50.756;6.172;2023-01-29T06:26:23;1.80;1.00
20182;DHT22;10250;50.756;6.172;2023-01-29T06:28:24;1.70;1.00
20182;DHT22;10250;50.756;6.172;2023-01-29T06:30:25;1.90;1.00
20182;DHT22;10250;50.756;6.172;2023-01-29T06:32:26;1.90;1.00
20182;DHT22;10250;50.756;6.172;2023-01-29T06:34:27;1.90;1.00
20182;DHT22;10250;50.756;6.172;2023-01-29T06:36:27;2.10;1.00
20182;DHT22;10250;50.756;6.172;2023-01-29T06:38:28;2.10;1.00
20182;DHT22;10250;50.756;6.172;2023-01-29T06:40:28;2.20;1.00
20182;DHT22;10250;50.756;6.172;2023-01-29T06:42:29;2.10;1.00
20182;DHT22;10250;50.756;6.172;2023-01-29T06:44:29;2.20;1.00
20182;DHT22;10250;50.756;6.172;2023-01-29T06:46:30;2.10;1.00
20182;DHT22;10250;50.756;6.172;2023-01-29T06:48:30;2.40;1.00
20182;DHT22;10250;50.756;6.172;2023-01-29T06:50:31;2.40;1.00
20182;DHT22;10250;50.756;6.172;2023-01-29T06:52:31;2.20;1.00
20182;DHT22;10250;50.756;6.172;2023-01-29T06:54:32;2.30;1.00
20182;DHT22;10250;50.756;6.172;2023-01-29T06:56:33;2.40;1.00
20182;DHT22;10250;50.756;6.172;2023-01-29T06:58:36;2.40;1.00
20182;DHT22;10250;50.756;6.172;2023-01-29T07:00:37;2.30;1.00
20182;DHT22;10250;50.756;6.172;2023-01-29T07:02:38;2.20;1.00
20182;DHT22;10250;50.756;6.172;2023-01-29T07:04:38;2.40;1.00
20182;DHT22;10250;50.756;6.172;2023-01-29T07:06:41;2.30;1.00
20182;DHT22;10250;50.756;6.172;2023-01-29T07:08:41;2.40;1.00
20182;DHT22;10250;50.756;6.172;2023-01-29T07:10:42;2.30;1.00
20182;DHT22;10250;50.756;6.172;2023-01-29T07:12:42;2.40;1.00
20182;DHT22;10250;50.756;6.172;2023-01-29T07:14:43;2.20;1.00
20182;DHT22;10250;50.756;6.172;2023-01-29T07:16:43;2.40;1.00
20182;DHT22;10250;50.756;6.172;2023-01-29T07:18:44;2.40;1.00
20182;DHT22;10250;50.756;6.172;2023-01-29T07:20:44;2.40;1.00
20182;DHT22;10250;50.756;6.172;2023-01-29T07:22:45;2.50;1.00
20182;DHT22;10250;50.756;6.172;2023-01-29T07:24:45;2.50;1.00
20182;DHT22;10250;50.756;6.172;2023-01-29T07:26:47;2.40;1.00
20182;DHT22;10250;50.756;6.172;2023-01-29T07:28:48;2.50;1.00
20182;DHT22;10250;50.756;6.172;2023-01-29T07:30:48;2.40;1.00
20182;DHT22;10250;50.756;6.172;2023-01-29T07:32:49;2.30;1.00
20182;DHT22;10250;50.756;6.172;2023-01-29T07:34:49;2.40;1.00
20182;DHT22;10250;50.756;6.172;2023-01-29T07:36:53;2.30;1.00
20182;DHT22;10250;50.756;6.172;2023-01-29T07:38:54;2.40;1.00
20182;DHT22;10250;50.756;6.172;2023-01-29T07:40:54;2.40;1.00
20182;DHT22;10250;50.756;6.172;2023-01-29T07:42:59;2.50;1.00
20182;DHT22;10250;50.756;6.172;2023-01-29T07:45:00;2.50;1.00
20182;DHT22;10250;50.756;6.172;2023-01-29T07:47:01;2.50;1.00
20182;DHT22;10250;50.756;6.172;2023-01-29T07:49:01;2.60;1.00
20182;DHT22;10250;50.756;6.172;2023-01-29T07:51:02;2.60;1.00
20182;DHT22;10250;50.756;6.172;2023-01-29T07:53:03;2.70;1.00
20182;DHT22;10250;50.756;6.172;2023-01-29T07:55:03;2.70;1.00
20182;DHT22;10250;50.756;6.172;2023-01-29T07:57:04;2.70;1.00
20182;DHT22;10250;50.756;6.172;2023-01-29T07:59:04;2.70;1.00
20182;DHT22;10250;50.756;6.172;2023-01-29T08:01:06;2.50;1.00
20182;DHT22;10250;50.756;6.172;2023-01-29T08:03:10;2.60;1.00
20182;DHT22;10250;50.756;6.172;2023-01-29T08:05:12;2.60;1.00
20182;DHT22;10250;50.756;6.172;2023-01-29T08:07:13;2.60;1.00
20182;DHT22;10250;50.756;6.172;2023-01-29T08:09:13;2.60;1.00
20182;DHT22;10250;50.756;6.172;2023-01-29T08:11:14;2.70;1.00
20182;DHT22;10250;50.756;6.172;2023-01-29T08:13:14;2.50;1.00
20182;DHT22;10250;50.756;6.172;2023-01-29T08:15:15;2.60;1.00
20182;DHT22;10250;50.756;6.172;2023-01-29T08:17:15;2.70;1.00
20182;DHT22;10250;50.756;6.172;2023-01-29T08:19:16;2.70;1.00
20182;DHT22;10250;50.756;6.172;2023-01-29T08:21:17;2.70;1.00
20182;DHT22;10250;50.756;6.172;2023-01-29T08:23:17;2.60;1.00
20182;DHT22;10250;50.756;6.172;2023-01-29T08:25:18;2.80;1.00
20182;DHT22;10250;50.756;6.172;2023-01-29T08:27:18;2.70;1.00
20182;DHT22;10250;50.756;6.172;2023-01-29T08:29:19;2.40;1.00
20182;DHT22;10250;50.756;6.172;2023-01-29T08:31:19;2.50;1.00
20182;DHT22;10250;50.756;6.172;2023-01-29T08:33:20;2.60;1.00
20182;DHT22;10250;50.756;6.172;2023-01-29T08:35:21;2.50;1.00
20182;DHT22;10250;50.756;6.172;2023-01-29T08:37:21;2.60;1.00
20182;DHT22;10250;50.756;6.172;2023-01-29T08:39:22;2.80;1.00
20182;DHT22;10250;50.756;6.172;2023-01-29T08:41:22;2.90;1.00
20182;DHT22;10250;50.756;6.172;2023-01-29T08:43:23;2.90;1.00
20182;DHT22;10250;50.756;6.172;2023-01-29T08:45:24;3.10;1.00
20182;DHT22;10250;50.756;6.172;2023-01-29T08:47:24;2.90;1.00
20182;DHT22;10250;50.756;6.172;2023-01-29T08:49:25;2.90;1.00
20182;DHT22;10250;50.756;6.172;2023-01-29T08:51:25;3.10;1.00
20182;DHT22;10250;50.756;6.172;2023-01-29T08:53:26;2.90;1.00
20182;DHT22;10250;50.756;6.172;2023-01-29T08:55:27;3.00;1.00
20182;DHT22;10250;50.756;6.172;2023-01-29T08:57:28;3.00;1.00
20182;DHT22;10250;50.756;6.172;2023-01-29T08:59:28;3.00;1.00
20182;DHT22;10250;50.756;6.172;2023-01-29T09:01:29;3.00;1.00
20182;DHT22;10250;50.756;6.172;2023-01-29T09:03:29;3.10;1.00
20182;DHT22;10250;50.756;6.172;2023-01-29T09:05:30;2.90;1.00
20182;DHT22;10250;50.756;6.172;2023-01-29T09:07:30;2.90;1.00
20182;DHT22;10250;50.756;6.172;2023-01-29T09:09:31;2.90;1.00
20182;DHT22;10250;50.756;6.172;2023-01-29T09:11:32;2.90;1.00
20182;DHT22;10250;50.756;6.172;2023-01-29T09:13:33;3.00;1.00
20182;DHT22;10250;50.756;6.172;2023-01-29T09:15:33;2.80;1.00
20182;DHT22;10250;50.756;6.172;2023-01-29T09:17:34;3.00;1.00
20182;DHT22;10250;50.756;6.172;2023-01-29T09:19:34;2.90;1.00
20182;DHT22;10250;50.756;6.172;2023-01-29T09:21:35;2.90;1.00
20182;DHT22;10250;50.756;6.172;2023-01-29T09:23:35;2.70;1.00
20182;DHT22;10250;50.756;6.172;2023-01-29T09:25:36;2.90;1.00
20182;DHT22;10250;50.756;6.172;2023-01-29T09:27:37;3.10;1.00
20182;DHT22;10250;50.756;6.172;2023-01-29T09:29:38;3.10;1.00
20182;DHT22;10250;50.756;6.172;2023-01-29T09:31:38;3.00;1.00
20182;DHT22;10250;50.756;6.172;2023-01-29T09:33:39;3.20;1.00
20182;DHT22;10250;50.756;6.172;2023-01-29T09:35:40;3.30;1.00
20182;DHT22;10250;50.756;6.172;2023-01-29T09:37:41;3.00;1.00
20182;DHT22;10250;50.756;6.172;2023-01-29T09:39:43;3.30;1.00
20182;DHT22;10250;50.756;6.172;2023-01-29T09:44:01;3.40;1.00
20182;DHT22;10250;50.756;6.172;2023-01-29T09:46:14;3.40;1.00
20182;DHT22;10250;50.756;6.172;2023-01-29T09:48:17;3.30;1.00
20182;DHT22;10250;50.756;6.172;2023-01-29T09:50:22;3.40;1.00
20182;DHT22;10250;50.756;6.172;2023-01-29T09:54:47;3.30;1.00
20182;DHT22;10250;50.756;6.172;2023-01-29T09:56:54;3.50;1.00
20182;DHT22;10250;50.756;6.172;2023-01-29T09:58:57;3.50;1.00
20182;DHT22;10250;50.756;6.172;2023-01-29T10:01:10;3.50;1.00
20182;DHT22;10250;50.756;6.172;2023-01-29T10:18:23;3.70;1.00
20182;DHT22;10250;50.756;6.172;2023-01-29T10:24:56;3.60;1.00
20182;DHT22;10250;50.756;6.172;2023-01-29T10:26:58;3.60;1.00
20182;DHT22;10250;50.756;6.172;2023-01-29T10:29:01;3.60;1.00
20182;DHT22;10250;50.756;6.172;2023-01-29T10:31:30;3.70;1.00
20182;DHT22;10250;50.756;6.172;2023-01-29T10:33:40;3.70;1.00
20182;DHT22;10250;50.756;6.172;2023-01-29T10:35:43;3.70;1.00
20182;DHT22;10250;50.756;6.172;2023-01-29T10:37:51;3.60;1.00
20182;DHT22;10250;50.756;6.172;2023-01-29T10:39:52;3.70;1.00
20182;DHT22;10250;50.756;6.172;2023-01-29T10:50:52;3.70;1.00
20182;DHT22;10250;50.756;6.172;2023-01-29T10:53:22;3.80;1.00
20182;DHT22;10250;50.756;6.172;2023-01-29T10:55:42;3.80;1.00
20182;DHT22;10250;50.756;6.172;2023-01-29T10:58:06;3.70;1.00
20182;DHT22;10250;50.756;6.172;2023-01-29T11:00:29;3.80;1.00
20182;DHT22;10250;50.756;6.172;2023-01-29T11:02:33;4.00;1.00
20182;DHT22;10250;50.756;6.172;2023-01-29T11:04:34;3.90;1.00
20182;DHT22;10250;50.756;6.172;2023-01-29T11:06:36;4.00;1.00
20182;DHT22;10250;50.756;6.172;2023-01-29T11:08:45;4.10;1.00
20182;DHT22;10250;50.756;6.172;2023-01-29T11:12:55;4.10;1.00
20182;DHT22;10250;50.756;6.172;2023-01-29T11:17:19;4.00;1.00
20182;DHT22;10250;50.756;6.172;2023-01-29T11:21:58;3.90;1.00
20182;DHT22;10250;50.756;6.172;2023-01-29T11:24:10;4.00;1.00
20182;DHT22;10250;50.756;6.172;2023-01-29T11:26:16;4.10;1.00
20182;DHT22;10250;50.756;6.172;2023-01-29T11:30:38;4.00;1.00
20182;DHT22;10250;50.756;6.172;2023-01-29T11:32:40;4.20;1.00
20182;DHT22;10250;50.756;6.172;2023-01-29T11:35:05;4.20;1.00
20182;DHT22;10250;50.756;6.172;2023-01-29T11:37:18;4.20;1.00
20182;DHT22;10250;50.756;6.172;2023-01-29T11:39:20;4.20;1.00
20182;DHT22;10250;50.756;6.172;2023-01-29T11:41:21;4.20;1.00
20182;DHT22;10250;50.756;6.172;2023-01-29T11:43:32;4.20;1.00
20182;DHT22;10250;50.756;6.172;2023-01-29T11:45:32;4.40;1.00
20182;DHT22;10250;50.756;6.172;2023-01-29T11:47:34;4.20;1.00
20182;DHT22;10250;50.756;6.172;2023-01-29T11:49:34;4.30;1.00
20182;DHT22;10250;50.756;6.172;2023-01-29T11:51:37;4.30;1.00
20182;DHT22;10250;50.756;6.172;2023-01-29T11:53:39;4.40;1.00
20182;DHT22;10250;50.756;6.172;2023-01-29T11:55:44;4.50;1.00
20182;DHT22;10250;50.756;6.172;2023-01-29T12:00:44;4.50;1.00
20182;DHT22;10250;50.756;6.172;2023-01-29T12:02:31;4.40;1.00
20182;DHT22;10250;50.756;6.172;2023-01-29T12:04:33;4.40;1.00
20182;DHT22;10250;50.756;6.172;2023-01-29T12:06:41;4.30;1.00
20182;DHT22;10250;50.756;6.172;2023-01-29T12:08:43;4.30;1.00
20182;DHT22;10250;50.756;6.172;2023-01-29T12:10:43;4.20;1.00
20182;DHT22;10250;50.756;6.172;2023-01-29T12:12:44;4.30;1.00
20182;DHT22;10250;50.756;6.172;2023-01-29T12:14:45;4.50;1.00
20182;DHT22;10250;50.756;6.172;2023-01-29T12:17:35;4.50;1.00
20182;DHT22;10250;50.756;6.172;2023-01-29T12:19:38;4.60;1.00
20182;DHT22;10250;50.756;6.172;2023-01-29T12:22:00;4.50;1.00
20182;DHT22;10250;50.756;6.172;2023-01-29T12:24:05;4.70;1.00
20182;DHT22;10250;50.756;6.172;2023-01-29T12:28:22;4.60;1.00
20182;DHT22;10250;50.756;6.172;2023-01-29T12:32:47;4.70;1.00
20182;DHT22;10250;50.756;6.172;2023-01-29T12:35:00;4.60;1.00
20182;DHT22;10250;50.756;6.172;2023-01-29T12:39:15;4.80;1.00
20182;DHT22;10250;50.756;6.172;2023-01-29T12:41:34;4.80;1.00
20182;DHT22;10250;50.756;6.172;2023-01-29T12:43:48;4.70;1.00
20182;DHT22;10250;50.756;6.172;2023-01-29T12:45:54;4.70;1.00
20182;DHT22;10250;50.756;6.172;2023-01-29T12:48:08;4.50;1.00
20182;DHT22;10250;50.756;6.172;2023-01-29T12:50:25;4.50;1.00
20182;DHT22;10250;50.756;6.172;2023-01-29T12:52:53;4.60;1.00
20182;DHT22;10250;50.756;6.172;2023-01-29T12:55:05;4.50;1.00
20182;DHT22;10250;50.756;6.172;2023-01-29T12:57:31;4.60;1.00
20182;DHT22;10250;50.756;6.172;2023-01-29T12:59:46;4.50;1.00
20182;DHT22;10250;50.756;6.172;2023-01-29T13:01:52;4.60;1.00
20182;DHT22;10250;50.756;6.172;2023-01-29T13:04:04;4.60;1.00
20182;DHT22;10250;50.756;6.172;2023-01-29T13:06:09;4.70;1.00
20182;DHT22;10250;50.756;6.172;2023-01-29T13:10:29;4.80;1.00
20182;DHT22;10250;50.756;6.172;2023-01-29T13:12:32;4.70;1.00
20182;DHT22;10250;50.756;6.172;2023-01-29T13:14:44;4.90;1.00
20182;DHT22;10250;50.756;6.172;2023-01-29T13:16:51;4.80;1.00
20182;DHT22;10250;50.756;6.172;2023-01-29T13:18:57;4.60;1.00
20182;DHT22;10250;50.756;6.172;2023-01-29T13:21:00;4.60;1.00
20182;DHT22;10250;50.756;6.172;2023-01-29T13:23:13;4.50;1.00
20182;DHT22;10250;50.756;6.172;2023-01-29T13:25:16;4.70;1.00
20182;DHT22;10250;50.756;6.172;2023-01-29T13:27:26;4.60;1.00
20182;DHT22;10250;50.756;6.172;2023-01-29T13:29:29;4.80;1.00
20182;DHT22;10250;50.756;6.172;2023-01-29T13:31:37;4.90;1.00
20182;DHT22;10250;50.756;6.172;2023-01-29T13:33:41;4.80;1.00
20182;DHT22;10250;50.756;6.172;2023-01-29T13:35:44;4.70;1.00
20182;DHT22;10250;50.756;6.172;2023-01-29T13:37:51;4.70;1.00
20182;DHT22;10250;50.756;6.172;2023-01-29T13:39:53;4.80;1.00
20182;DHT22;10250;50.756;6.172;2023-01-29T13:41:56;4.90;1.00
20182;DHT22;10250;50.756;6.172;2023-01-29T13:43:57;4.90;1.00
20182;DHT22;10250;50.756;6.172;2023-01-29T13:46:06;5.00;1.00
20182;DHT22;10250;50.756;6.172;2023-01-29T13:48:23;5.10;1.00
20182;DHT22;10250;50.756;6.172;2023-01-29T13:50:37;4.80;1.00
20182;DHT22;10250;50.756;6.172;2023-01-29T13:52:52;4.80;1.00
20182;DHT22;10250;50.756;6.172;2023-01-29T13:54:58;4.80;1.00
20182;DHT22;10250;50.756;6.172;2023-01-29T13:57:00;4.70;1.00
20182;DHT22;10250;50.756;6.172;2023-01-29T13:59:05;4.70;1.00
20182;DHT22;10250;50.756;6.172;2023-01-29T14:01:05;4.00;1.00
20182;DHT22;10250;50.756;6.172;2023-01-29T14:07:48;4.70;1.00
20182;DHT22;10250;50.756;6.172;2023-01-29T14:11:50;4.80;1.00
20182;DHT22;10250;50.756;6.172;2023-01-29T14:13:50;4.70;1.00
20182;DHT22;10250;50.756;6.172;2023-01-29T14:18:21;5.00;1.00
20182;DHT22;10250;50.756;6.172;2023-01-29T14:20:29;5.00;1.00
20182;DHT22;10250;50.756;6.172;2023-01-29T14:22:30;4.80;1.00
20182;DHT22;10250;50.756;6.172;2023-01-29T14:24:32;4.80;1.00
20182;DHT22;10250;50.756;6.172;2023-01-29T14:26:43;4.90;1.00
20182;DHT22;10250;50.756;6.172;2023-01-29T14:29:00;4.90;1.00
20182;DHT22;10250;50.756;6.172;2023-01-29T14:31:02;4.80;1.00
20182;DHT22;10250;50.756;6.172;2023-01-29T14:33:03;4.70;1.00
20182;DHT22;10250;50.756;6.172;2023-01-29T14:35:24;4.70;1.00
20182;DHT22;10250;50.756;6.172;2023-01-29T14:37:49;4.80;1.00
20182;DHT22;10250;50.756;6.172;2023-01-29T14:39:53;4.80;1.00
20182;DHT22;10250;50.756;6.172;2023-01-29T14:41:55;4.90;1.00
20182;DHT22;10250;50.756;6.172;2023-01-29T14:48:37;4.90;1.00
20182;DHT22;10250;50.756;6.172;2023-01-29T14:50:42;5.00;1.00
20182;DHT22;10250;50.756;6.172;2023-01-29T14:52:43;4.80;1.00
20182;DHT22;10250;50.756;6.172;2023-01-29T14:54:45;4.60;1.00
20182;DHT22;10250;50.756;6.172;2023-01-29T14:56:56;4.80;1.00
20182;DHT22;10250;50.756;6.172;2023-01-29T14:59:22;4.70;1.00
20182;DHT22;10250;50.756;6.172;2023-01-29T15:01:33;4.80;1.00
20182;DHT22;10250;50.756;6.172;2023-01-29T15:03:46;4.80;1.00
20182;DHT22;10250;50.756;6.172;2023-01-29T15:05:50;4.80;1.00
20182;DHT22;10250;50.756;6.172;2023-01-29T15:10:10;4.80;1.00
20182;DHT22;10250;50.756;6.172;2023-01-29T15:12:34;4.70;1.00
20182;DHT22;10250;50.756;6.172;2023-01-29T15:17:24;5.00;1.00
20182;DHT22;10250;50.756;6.172;2023-01-29T15:19:31;4.80;1.00
20182;DHT22;10250;50.756;6.172;2023-01-29T15:21:33;4.90;1.00
20182;DHT22;10250;50.756;6.172;2023-01-29T15:23:34;4.80;1.00
20182;DHT22;10250;50.756;6.172;2023-01-29T15:25:36;4.70;1.00
20182;DHT22;10250;50.756;6.172;2023-01-29T15:27:40;4.80;1.00
20182;DHT22;10250;50.756;6.172;2023-01-29T15:29:46;4.80;1.00